createdAt,value
2022-11-23T00:00:29.611Z,24.90
2022-11-23T00:10:35.308Z,22.80
2022-11-23T00:20:42.939Z,20.30
2022-11-23T00:30:52.308Z,22.00
2022-11-23T00:41:02.510Z,21.00
2022-11-23T00:51:11.238Z,23.50
2022-11-23T01:01:18.363Z,22.20
2022-11-23T01:11:25.361Z,21.30
2022-11-23T01:31:40.526Z,20.10
2022-11-23T01:41:48.783Z,18.50
2022-11-23T01:51:58.932Z,18.50
2022-11-23T02:02:05.538Z,21.30
2022-11-23T02:12:13.733Z,19.60
2022-11-23T02:22:27.821Z,19.40
2022-11-23T02:32:35.564Z,19.60
2022-11-23T02:42:41.906Z,18.60
2022-11-23T02:52:47.504Z,18.40
2022-11-23T03:02:53.059Z,19.80
2022-11-23T03:12:59.143Z,19.30
2022-11-23T03:23:04.665Z,22.00
2022-11-23T03:33:10.276Z,20.10
2022-11-23T03:43:16.323Z,20.50
2022-11-23T03:53:22.085Z,19.40
2022-11-23T04:03:27.803Z,19.40
2022-11-23T04:13:33.414Z,18.90
2022-11-23T04:23:39.455Z,20.20
2022-11-23T04:33:45.185Z,20.20
2022-11-23T04:43:51.855Z,19.00
2022-11-23T04:53:57.433Z,22.70
2022-11-23T05:04:03.101Z,21.60
2022-11-23T05:14:08.756Z,23.20
2022-11-23T05:24:14.677Z,22.50
2022-11-23T05:34:20.504Z,22.40
2022-11-23T05:44:26.099Z,22.00
2022-11-23T05:54:31.723Z,21.10
2022-11-23T06:04:37.309Z,20.40
2022-11-23T06:14:43.065Z,20.00
2022-11-23T06:24:48.652Z,16.60
2022-11-23T06:34:59.368Z,14.60
2022-11-23T06:45:08.133Z,16.30
2022-11-23T06:55:13.746Z,12.80
2022-11-23T07:05:19.515Z,15.20
2022-11-23T07:15:25.113Z,15.20
2022-11-23T07:25:31.143Z,15.30
2022-11-23T07:35:37.603Z,14.60
2022-11-23T07:55:47.953Z,15.40
2022-11-23T08:05:53.682Z,16.40
2022-11-23T08:15:59.284Z,17.00
2022-11-23T08:26:12.012Z,17.30
2022-11-23T08:36:20.336Z,17.80
2022-11-23T08:46:25.878Z,16.50
2022-11-23T08:56:31.508Z,14.50
2022-11-23T09:06:37.413Z,16.30
2022-11-23T09:16:42.972Z,16.20
2022-11-23T09:26:48.897Z,15.70
2022-11-23T09:36:54.466Z,16.70
2022-11-23T09:47:17.417Z,15.90
2022-11-23T09:57:26.213Z,15.90
2022-11-23T10:07:48.417Z,15.90
2022-11-23T10:18:15.202Z,16.50
2022-11-23T10:28:24.028Z,14.70
2022-11-23T10:38:30.421Z,13.50
2022-11-23T10:48:38.100Z,15.00
2022-11-23T10:58:47.278Z,15.20
2022-11-23T11:08:55.515Z,13.70
2022-11-23T11:19:01.746Z,14.70
2022-11-23T11:29:10.010Z,11.60
2022-11-23T11:39:21.775Z,12.70
2022-11-23T11:49:31.456Z,11.90
2022-11-23T11:59:43.712Z,12.40
2022-11-23T12:09:52.058Z,15.30
2022-11-23T12:20:06.696Z,15.80
2022-11-23T12:30:26.205Z,14.60
2022-11-23T12:40:58.196Z,15.40
2022-11-23T12:51:14.781Z,15.50
2022-11-23T13:01:30.601Z,14.20
2022-11-23T13:11:58.450Z,15.50
2022-11-23T13:22:07.129Z,17.50
2022-11-23T13:32:47.955Z,18.50
2022-11-23T13:42:55.435Z,15.40
2022-11-23T14:03:39.823Z,21.60
2022-11-23T14:13:52.935Z,21.30
2022-11-23T14:24:38.899Z,21.90
2022-11-23T14:34:55.684Z,17.60
2022-11-23T14:45:14.315Z,21.90
2022-11-23T14:55:22.733Z,20.60
2022-11-23T15:05:32.272Z,23.30
2022-11-23T15:15:39.650Z,23.30
2022-11-23T15:25:54.783Z,24.80
2022-11-23T15:36:00.452Z,25.10
2022-11-23T15:46:14.394Z,23.50
2022-11-23T15:56:28.289Z,23.90
2022-11-23T16:06:41.461Z,22.10
2022-11-23T16:16:49.242Z,24.70
2022-11-23T16:26:55.151Z,24.70
2022-11-23T16:37:03.963Z,31.90
2022-11-23T16:47:28.350Z,31.30
2022-11-23T16:57:36.187Z,27.60
2022-11-23T17:07:41.846Z,28.30
2022-11-23T17:17:47.649Z,35.00
2022-11-23T17:27:53.451Z,32.70
2022-11-23T17:37:59.078Z,33.60
2022-11-23T17:48:05.257Z,34.20
2022-11-23T17:58:12.608Z,33.50
2022-11-23T18:08:18.218Z,34.90
2022-11-23T18:18:24.094Z,27.30
2022-11-23T18:28:30.406Z,26.50
2022-11-23T18:38:36.897Z,27.90
2022-11-23T18:58:48.431Z,27.30
2022-11-23T19:08:56.890Z,27.00
2022-11-23T19:19:04.488Z,25.20
2022-11-23T19:29:10.047Z,28.00
2022-11-23T19:39:15.730Z,25.10
2022-11-23T19:49:21.550Z,24.80
2022-11-23T19:59:27.857Z,23.10
2022-11-23T20:09:33.915Z,24.50
2022-11-23T20:19:39.752Z,22.20
2022-11-23T20:29:45.511Z,23.40
2022-11-23T20:39:52.949Z,25.20
2022-11-23T20:49:58.582Z,24.70
2022-11-23T21:00:04.453Z,21.30
2022-11-23T21:10:31.297Z,20.60
2022-11-23T21:20:37.284Z,22.90
2022-11-23T21:30:43.861Z,22.30
2022-11-23T21:40:49.647Z,26.10
2022-11-23T21:51:03.126Z,22.70
2022-11-23T22:01:12.282Z,19.60
2022-11-23T22:11:20.440Z,23.70
2022-11-23T22:21:27.928Z,27.30
2022-11-23T22:31:34.435Z,27.00
2022-11-23T22:41:41.093Z,24.20
2022-11-23T23:01:51.109Z,21.70
2022-11-23T23:11:56.808Z,25.40
2022-11-23T23:22:02.532Z,22.70
2022-11-23T23:32:08.543Z,22.40
2022-11-23T23:42:14.343Z,22.40
2022-11-23T23:52:20.329Z,23.60
